Time;durP1;ratioP1;P1;durP2;ratioP2;P2;SDS_P1;SDS_P2;PMS_P1;PMS_P2;Temp;Humidity;BMP_temperature;BMP_pressure;BME280_temperature;BME280_humidity;BME280_pressure;Samples;Min_cycle;Max_cycle;Signal;HPM_P1;HPM_P2
2021/01/10 00:00:02;;;;;;;22.25;15.55;;;4.40;99.90;;;;;;5097513;28;20182;-45
2021/01/10 00:02:32;;;;;;;23.92;15.52;;;4.70;99.90;;;;;;5096087;28;20319;-45
2021/01/10 00:04:58;;;;;;;22.23;15.60;;;4.70;99.90;;;;;;5095887;28;20191;-46
2021/01/10 00:07:25;;;;;;;23.77;15.65;;;4.70;99.90;;;;;;5093762;28;20225;-45
2021/01/10 00:09:53;;;;;;;21.70;14.75;;;4.60;99.90;;;;;;5095079;28;20201;-45
2021/01/10 00:12:22;;;;;;;20.48;15.27;;;4.50;99.90;;;;;;5094194;28;20211;-44
2021/01/10 00:14:48;;;;;;;24.75;14.57;;;4.50;99.90;;;;;;5094359;28;20592;-44
2021/01/10 00:17:15;;;;;;;18.67;14.80;;;4.60;99.90;;;;;;5094039;28;20199;-46
2021/01/10 00:19:43;;;;;;;21.30;14.57;;;4.60;99.90;;;;;;5094024;28;20260;-45
2021/01/10 00:22:11;;;;;;;20.58;15.55;;;4.60;99.90;;;;;;5093988;28;20222;-44
2021/01/10 00:24:38;;;;;;;21.30;13.40;;;4.60;99.90;;;;;;5093744;28;20570;-44
2021/01/10 00:27:07;;;;;;;20.23;15.25;;;4.20;99.90;;;;;;5093772;28;20598;-45
2021/01/10 00:29:35;;;;;;;20.30;13.85;;;4.70;99.90;;;;;;5092539;28;20689;-46
2021/01/10 00:32:03;;;;;;;19.60;15.05;;;4.70;99.90;;;;;;5093522;28;20226;-45
2021/01/10 00:34:29;;;;;;;18.95;14.63;;;4.70;99.90;;;;;;5093574;28;20252;-45
2021/01/10 00:36:56;;;;;;;17.42;13.35;;;3.80;99.90;;;;;;5093514;28;20194;-45
2021/01/10 00:39:22;;;;;;;21.25;14.80;;;4.60;99.90;;;;;;5093531;28;20205;-45
2021/01/10 00:41:49;;;;;;;23.25;15.52;;;4.70;99.90;;;;;;5093462;28;20222;-46
2021/01/10 00:44:16;;;;;;;21.90;16.30;;;4.70;99.90;;;;;;5091637;28;20571;-46
2021/01/10 00:46:43;;;;;;;22.42;17.23;;;4.70;99.90;;;;;;5092145;28;20203;-45
2021/01/10 00:49:10;;;;;;;23.90;16.35;;;4.70;99.90;;;;;;5091784;28;20226;-45
2021/01/10 00:51:36;;;;;;;21.00;14.98;;;4.70;99.90;;;;;;5093163;28;20286;-44
2021/01/10 00:54:04;;;;;;;18.65;14.77;;;4.60;99.90;;;;;;5091305;28;20205;-46
2021/01/10 00:56:31;;;;;;;20.95;16.10;;;4.60;99.90;;;;;;5093134;28;20595;-44
2021/01/10 00:58:59;;;;;;;23.25;16.15;;;4.60;99.90;;;;;;5091628;28;20590;-45
2021/01/10 01:01:25;;;;;;;22.75;16.08;;;4.50;99.90;;;;;;5093031;28;20269;-44
2021/01/10 01:03:53;;;;;;;50.35;31.33;;;4.50;99.90;;;;;;5091148;28;20207;-46
2021/01/10 01:06:19;;;;;;;24.25;16.77;;;4.70;99.90;;;;;;5091729;28;20198;-45
2021/01/10 01:08:46;;;;;;;22.75;16.48;;;4.50;99.90;;;;;;5091275;28;20389;-45
2021/01/10 01:11:14;;;;;;;27.77;16.70;;;4.70;99.90;;;;;;5091663;28;20245;-45
2021/01/10 01:13:40;;;;;;;22.67;15.73;;;4.90;99.90;;;;;;5093102;28;20217;-46
2021/01/10 01:16:07;;;;;;;25.48;17.40;;;4.60;99.90;;;;;;5092712;28;20195;-45
2021/01/10 01:18:34;;;;;;;27.70;16.10;;;4.60;99.90;;;;;;5091289;28;20194;-45
2021/01/10 01:21:02;;;;;;;22.10;15.30;;;4.70;99.90;;;;;;5092485;28;20191;-44
2021/01/10 01:23:28;;;;;;;27.88;17.00;;;4.80;99.90;;;;;;5091979;28;20267;-45
2021/01/10 01:25:55;;;;;;;26.77;17.25;;;4.80;99.90;;;;;;5092411;28;20191;-45
2021/01/10 01:28:21;;;;;;;28.05;17.80;;;4.70;99.90;;;;;;5092523;28;20194;-44
2021/01/10 01:30:48;;;;;;;27.65;17.92;;;4.80;99.90;;;;;;5092665;28;20675;-44
2021/01/10 01:33:14;;;;;;;22.35;15.38;;;4.70;99.90;;;;;;5092654;28;20211;-45
2021/01/10 01:35:41;;;;;;;23.65;16.17;;;4.60;99.90;;;;;;5092605;28;20229;-44
2021/01/10 01:38:08;;;;;;;24.13;15.63;;;4.90;99.90;;;;;;5092694;28;20570;-44
2021/01/10 01:40:35;;;;;;;28.55;17.17;;;4.60;99.90;;;;;;5094393;28;20211;-44
2021/01/10 01:43:01;;;;;;;23.92;16.65;;;4.60;99.90;;;;;;5094691;28;20709;-44
2021/01/10 01:45:28;;;;;;;26.58;17.83;;;4.70;99.90;;;;;;5094019;28;20307;-44
2021/01/10 01:47:54;;;;;;;26.40;17.90;;;4.40;99.90;;;;;;5091676;28;20195;-44
2021/01/10 01:50:22;;;;;;;24.70;15.80;;;4.70;99.90;;;;;;5092540;28;20210;-45
2021/01/10 01:52:48;;;;;;;22.80;17.52;;;4.70;99.90;;;;;;5090908;28;20283;-44
2021/01/10 01:55:16;;;;;;;26.40;17.10;;;4.90;99.90;;;;;;5092164;28;20195;-45
2021/01/10 01:57:42;;;;;;;25.25;16.38;;;4.80;99.90;;;;;;5090914;28;20194;-45
2021/01/10 02:00:10;;;;;;;27.05;18.17;;;3.90;99.90;;;;;;5092228;28;20213;-45
2021/01/10 02:02:43;;;;;;;25.30;16.58;;;4.50;99.90;;;;;;5091818;28;20317;-44
2021/01/10 02:05:13;;;;;;;22.27;15.30;;;4.50;99.90;;;;;;5090887;28;20206;-45
2021/01/10 02:07:44;;;;;;;29.73;18.13;;;4.80;99.90;;;;;;5092538;28;20207;-44
2021/01/10 02:10:13;;;;;;;27.10;18.38;;;4.50;99.90;;;;;;5091259;28;20674;-44
2021/01/10 02:12:48;;;;;;;28.45;18.98;;;4.70;99.90;;;;;;5091633;28;20674;-44
2021/01/10 02:15:17;;;;;;;28.52;17.30;;;4.70;99.90;;;;;;5091984;28;20190;-46
2021/01/10 02:17:47;;;;;;;27.33;18.63;;;3.90;99.90;;;;;;5092087;28;20202;-45
2021/01/10 02:20:20;;;;;;;28.17;17.85;;;4.60;99.90;;;;;;5092726;28;20548;-44
2021/01/10 02:22:51;;;;;;;23.98;16.55;;;4.70;99.90;;;;;;5094522;28;20222;-44
2021/01/10 02:25:18;;;;;;;26.13;17.05;;;4.70;99.90;;;;;;5094661;28;20586;-46
2021/01/10 02:27:45;;;;;;;27.48;17.13;;;4.70;99.90;;;;;;5095976;28;20709;-45
2021/01/10 02:30:14;;;;;;;24.38;16.30;;;4.50;99.90;;;;;;5095898;28;20198;-45
2021/01/10 02:32:45;;;;;;;25.05;16.17;;;4.70;99.90;;;;;;5095338;28;20284;-44
2021/01/10 02:35:12;;;;;;;30.60;16.30;;;4.70;99.90;;;;;;5095728;28;20187;-45
2021/01/10 02:37:59;;;;;;;25.75;16.30;;;4.60;99.90;;;;;;5095865;28;20234;-44
2021/01/10 02:40:32;;;;;;;26.77;15.43;;;4.70;99.90;;;;;;5095677;28;20651;-44
2021/01/10 02:43:05;;;;;;;22.23;16.10;;;4.70;99.90;;;;;;5095371;28;20218;-45
2021/01/10 02:45:32;;;;;;;25.85;16.38;;;4.40;99.90;;;;;;5095767;28;20194;-48
2021/01/10 02:47:59;;;;;;;25.33;15.60;;;4.70;99.90;;;;;;5096949;28;20217;-46
2021/01/10 02:50:26;;;;;;;27.58;16.38;;;4.90;99.90;;;;;;5095754;28;20237;-46
2021/01/10 02:52:53;;;;;;;27.13;17.52;;;4.70;99.90;;;;;;5097266;28;20661;-44
2021/01/10 02:55:20;;;;;;;25.73;16.02;;;4.60;99.90;;;;;;5100064;28;20186;-45
2021/01/10 02:57:51;;;;;;;25.70;15.77;;;4.00;99.90;;;;;;5098189;28;20211;-44
2021/01/10 03:00:18;;;;;;;24.92;16.73;;;4.60;99.90;;;;;;5096394;28;20233;-44
2021/01/10 03:02:46;;;;;;;27.33;17.67;;;4.90;99.90;;;;;;5094123;28;20230;-44
2021/01/10 03:05:13;;;;;;;25.60;16.05;;;4.50;99.90;;;;;;5095362;28;20663;-44
2021/01/10 03:07:41;;;;;;;27.70;17.30;;;4.80;99.90;;;;;;5094570;28;20603;-44
2021/01/10 03:10:10;;;;;;;28.40;18.55;;;4.40;99.90;;;;;;5094039;28;20203;-45
2021/01/10 03:12:37;;;;;;;27.48;17.50;;;4.50;99.90;;;;;;5094645;28;20218;-45
2021/01/10 03:15:09;;;;;;;25.35;16.65;;;4.60;99.90;;;;;;5095252;28;20215;-44
2021/01/10 03:17:37;;;;;;;29.73;17.90;;;4.40;99.90;;;;;;5094906;28;20187;-44
2021/01/10 03:20:07;;;;;;;28.65;16.67;;;4.60;99.90;;;;;;5095127;28;20199;-45
2021/01/10 03:22:34;;;;;;;26.23;15.70;;;4.80;99.90;;;;;;5094524;28;20246;-44
2021/01/10 03:25:01;;;;;;;25.33;15.63;;;4.50;99.90;;;;;;5094747;28;20698;-46
2021/01/10 03:27:28;;;;;;;22.30;14.05;;;4.60;99.90;;;;;;5094670;28;20674;-45
2021/01/10 03:29:55;;;;;;;26.45;16.00;;;4.60;99.90;;;;;;5094518;28;20198;-47
2021/01/10 03:32:22;;;;;;;21.48;14.27;;;4.50;99.90;;;;;;5093525;28;20225;-46
2021/01/10 03:34:49;;;;;;;23.73;14.35;;;4.70;99.90;;;;;;5094636;28;20243;-47
2021/01/10 03:37:15;;;;;;;28.85;17.00;;;4.40;99.90;;;;;;5094511;28;20207;-45
2021/01/10 03:39:42;;;;;;;24.75;15.88;;;4.40;99.90;;;;;;5094566;28;20191;-45
2021/01/10 03:42:08;;;;;;;26.88;16.50;;;3.70;99.90;;;;;;5094480;28;20556;-45
2021/01/10 03:44:35;;;;;;;24.50;15.60;;;4.20;99.90;;;;;;5094455;28;20377;-46
2021/01/10 03:47:02;;;;;;;22.45;14.82;;;4.20;99.90;;;;;;5094467;28;20659;-46
2021/01/10 03:49:29;;;;;;;27.02;15.13;;;4.20;99.90;;;;;;5092905;28;20199;-46
2021/01/10 03:51:56;;;;;;;26.92;15.35;;;4.10;99.90;;;;;;5094293;28;20218;-44
2021/01/10 03:54:22;;;;;;;28.40;16.75;;;4.20;99.90;;;;;;5093978;28;20191;-44
2021/01/10 03:56:49;;;;;;;25.27;15.05;;;4.40;99.90;;;;;;5094300;28;20198;-44
2021/01/10 03:59:15;;;;;;;21.65;12.88;;;4.40;99.90;;;;;;5094291;28;20195;-44
2021/01/10 04:01:42;;;;;;;26.75;15.63;;;4.20;99.90;;;;;;5118411;22;20218;-46
2021/01/10 04:04:08;;;;;;;24.38;15.35;;;4.00;99.90;;;;;;5092599;28;20259;-46
2021/01/10 04:06:36;;;;;;;27.83;15.70;;;4.20;99.90;;;;;;5094161;28;20195;-46
2021/01/10 04:09:03;;;;;;;20.70;13.52;;;4.10;99.90;;;;;;5094049;28;20186;-46
2021/01/10 04:11:29;;;;;;;21.33;13.98;;;4.40;99.90;;;;;;5093696;28;20233;-46
2021/01/10 04:13:56;;;;;;;23.48;15.43;;;4.10;99.90;;;;;;5093352;28;20233;-46
2021/01/10 04:16:22;;;;;;;24.42;15.27;;;4.20;99.90;;;;;;5093775;28;20198;-46
2021/01/10 04:18:49;;;;;;;22.40;14.98;;;4.20;99.90;;;;;;5093717;28;20191;-46
2021/01/10 04:21:15;;;;;;;22.15;14.93;;;4.30;99.90;;;;;;5092354;28;20195;-46
2021/01/10 04:23:42;;;;;;;26.08;15.23;;;4.40;99.90;;;;;;5092966;28;20214;-46
2021/01/10 04:26:09;;;;;;;21.63;12.35;;;4.20;99.90;;;;;;5093508;28;20195;-46
2021/01/10 04:28:35;;;;;;;21.10;13.68;;;4.30;99.90;;;;;;5093493;28;20670;-46
2021/01/10 04:31:02;;;;;;;18.45;12.20;;;4.20;99.90;;;;;;5093279;28;20218;-46
2021/01/10 04:33:29;;;;;;;16.67;13.10;;;4.30;99.90;;;;;;5093043;28;20312;-46
2021/01/10 04:35:55;;;;;;;19.40;12.68;;;4.40;99.90;;;;;;5093257;28;20229;-46
2021/01/10 04:38:22;;;;;;;19.52;12.50;;;4.10;99.90;;;;;;5093576;28;20637;-46
2021/01/10 04:40:50;;;;;;;17.85;11.90;;;4.20;99.90;;;;;;5093232;28;20187;-46
2021/01/10 04:43:17;;;;;;;20.73;13.70;;;4.40;99.90;;;;;;5093007;28;20211;-46
2021/01/10 04:45:43;;;;;;;17.13;12.25;;;4.40;99.90;;;;;;5093178;28;20267;-47
2021/01/10 04:48:10;;;;;;;21.55;12.82;;;4.20;99.90;;;;;;5093324;28;20824;-46
2021/01/10 04:50:38;;;;;;;15.90;12.07;;;4.10;99.90;;;;;;5093087;28;20235;-46
2021/01/10 04:53:08;;;;;;;20.45;13.25;;;3.90;99.90;;;;;;5092806;28;20769;-46
2021/01/10 04:55:36;;;;;;;20.40;13.30;;;4.20;99.90;;;;;;5093240;28;20697;-44
2021/01/10 04:58:06;;;;;;;22.95;13.80;;;4.40;99.90;;;;;;5092833;28;20191;-45
2021/01/10 05:00:33;;;;;;;21.40;12.73;;;4.30;99.90;;;;;;5093064;28;20708;-44
2021/01/10 05:03:05;;;;;;;19.67;13.52;;;4.20;99.90;;;;;;5092605;28;20222;-44
2021/01/10 05:05:36;;;;;;;19.52;13.07;;;4.10;99.90;;;;;;5093113;28;20232;-45
2021/01/10 05:08:07;;;;;;;22.17;14.05;;;4.40;99.90;;;;;;5093109;28;20535;-45
2021/01/10 05:10:34;;;;;;;19.83;13.30;;;4.00;99.90;;;;;;5095017;28;20230;-45
2021/01/10 05:13:00;;;;;;;17.75;12.85;;;4.10;99.90;;;;;;5094255;28;20287;-44
2021/01/10 05:15:28;;;;;;;19.90;12.73;;;4.20;99.90;;;;;;5095359;28;20560;-45
2021/01/10 05:17:55;;;;;;;21.88;13.85;;;3.90;99.90;;;;;;5092837;28;20256;-44
2021/01/10 05:20:25;;;;;;;20.50;13.30;;;4.30;99.90;;;;;;5093817;28;20195;-45
2021/01/10 05:22:51;;;;;;;22.40;14.90;;;3.90;99.90;;;;;;5093084;28;20218;-45
2021/01/10 05:25:18;;;;;;;21.17;13.90;;;4.30;99.90;;;;;;5093241;28;20197;-45
2021/01/10 05:27:47;;;;;;;24.92;15.38;;;4.00;99.90;;;;;;5093292;28;20210;-45
2021/01/10 05:30:16;;;;;;;24.25;16.02;;;4.30;99.90;;;;;;5092656;28;20199;-45
2021/01/10 05:32:57;;;;;;;21.52;14.73;;;4.10;99.90;;;;;;5090957;28;20276;-45
2021/01/10 05:35:23;;;;;;;23.17;15.82;;;4.20;99.90;;;;;;5092898;28;20191;-45
2021/01/10 05:37:58;;;;;;;23.08;15.70;;;3.90;99.90;;;;;;5092992;28;20194;-45
2021/01/10 05:40:30;;;;;;;22.00;15.93;;;3.80;99.90;;;;;;5091886;28;20617;-45
2021/01/10 05:43:05;;;;;;;21.85;14.73;;;4.10;99.90;;;;;;5092238;28;20225;-45
2021/01/10 05:45:35;;;;;;;21.02;14.25;;;4.00;99.90;;;;;;5094495;28;20552;-46
2021/01/10 05:48:14;;;;;;;21.20;15.15;;;4.10;99.90;;;;;;5095952;28;20199;-46
2021/01/10 05:50:45;;;;;;;20.23;14.02;;;3.90;99.90;;;;;;5095013;28;20213;-46
2021/01/10 05:53:20;;;;;;;23.33;14.13;;;4.10;99.90;;;;;;5091879;28;20214;-46
2021/01/10 05:55:58;;;;;;;22.48;13.75;;;3.90;99.90;;;;;;5092232;28;20198;-46
2021/01/10 05:58:26;;;;;;;22.58;15.60;;;3.90;99.90;;;;;;5092625;28;20222;-46
2021/01/10 06:00:53;;;;;;;23.77;14.90;;;3.80;99.90;;;;;;5092325;28;20654;-46
2021/01/10 06:03:22;;;;;;;21.80;13.88;;;3.70;99.90;;;;;;5091732;28;20214;-47
2021/01/10 06:05:59;;;;;;;19.33;13.00;;;4.10;99.90;;;;;;5092069;28;20230;-46
2021/01/10 06:08:32;;;;;;;18.95;13.23;;;4.00;99.90;;;;;;5092068;28;20189;-46
2021/01/10 06:11:26;;;;;;;20.05;13.65;;;3.90;99.90;;;;;;5092034;28;20210;-46
2021/01/10 06:13:55;;;;;;;20.80;13.68;;;3.90;99.90;;;;;;5091846;28;20257;-46
2021/01/10 06:16:23;;;;;;;17.70;12.45;;;3.90;99.90;;;;;;5092164;28;20195;-46
2021/01/10 06:18:53;;;;;;;16.20;12.30;;;4.00;99.90;;;;;;5092384;28;20569;-46
2021/01/10 06:21:22;;;;;;;16.33;11.27;;;3.90;99.90;;;;;;5092575;28;20186;-46
2021/01/10 06:23:54;;;;;;;15.38;10.73;;;4.00;99.90;;;;;;5092133;28;20210;-46
2021/01/10 06:26:22;;;;;;;15.35;11.20;;;4.10;99.90;;;;;;5092620;28;20198;-46
2021/01/10 06:28:58;;;;;;;17.00;11.30;;;4.00;99.90;;;;;;5093184;28;20229;-46
2021/01/10 06:31:27;;;;;;;14.02;10.18;;;3.90;99.90;;;;;;5093012;28;20229;-46
2021/01/10 06:34:05;;;;;;;24.05;16.42;;;4.00;99.90;;;;;;5092070;28;20222;-44
2021/01/10 06:36:34;;;;;;;15.23;11.20;;;4.20;99.90;;;;;;5091202;28;20202;-46
2021/01/10 06:39:06;;;;;;;15.13;11.02;;;4.30;99.90;;;;;;5092790;28;20541;-46
2021/01/10 06:42:01;;;;;;;17.20;11.63;;;4.10;99.90;;;;;;5092221;28;20296;-45
2021/01/10 06:44:32;;;;;;;15.93;11.30;;;4.30;99.90;;;;;;5093722;28;20186;-45
2021/01/10 06:46:59;;;;;;;15.25;10.40;;;4.20;99.90;;;;;;5092798;28;20183;-46
2021/01/10 06:49:26;;;;;;;15.15;10.90;;;3.90;99.90;;;;;;5092316;28;20199;-45
2021/01/10 06:51:57;;;;;;;13.00;10.35;;;4.40;99.90;;;;;;5094007;28;20207;-45
2021/01/10 06:54:24;;;;;;;15.23;10.27;;;4.40;99.90;;;;;;5092993;28;20528;-46
2021/01/10 06:56:51;;;;;;;13.20;10.35;;;4.40;99.90;;;;;;5091657;28;20597;-45
2021/01/10 06:59:19;;;;;;;14.70;10.90;;;4.30;99.90;;;;;;5091618;28;20187;-46
2021/01/10 07:02:01;;;;;;;11.75;9.75;;;4.20;99.90;;;;;;5091379;28;20191;-46
2021/01/10 07:05:00;;;;;;;17.27;11.30;;;4.10;99.90;;;;;;5091445;28;20214;-45
2021/01/10 07:07:40;;;;;;;14.70;10.50;;;3.90;99.90;;;;;;5092427;28;20183;-45
2021/01/10 07:10:09;;;;;;;16.58;10.65;;;4.00;99.90;;;;;;5095186;28;20244;-45
2021/01/10 07:12:36;;;;;;;14.70;11.32;;;4.10;99.90;;;;;;5094614;28;20223;-46
2021/01/10 07:15:28;;;;;;;17.02;11.38;;;4.00;99.90;;;;;;5095078;28;20191;-46
2021/01/10 07:18:06;;;;;;;14.43;10.77;;;4.00;99.90;;;;;;5094941;28;20663;-46
2021/01/10 07:20:39;;;;;;;16.55;10.63;;;3.50;99.90;;;;;;5095119;28;20391;-46
2021/01/10 07:23:25;;;;;;;14.43;10.95;;;3.70;99.90;;;;;;5094771;28;20230;-46
2021/01/10 07:25:52;;;;;;;15.23;10.10;;;3.70;99.90;;;;;;5094807;28;20191;-46
2021/01/10 07:28:42;;;;;;;11.77;9.73;;;3.70;99.90;;;;;;5095098;28;20218;-46
2021/01/10 07:31:20;;;;;;;15.18;11.15;;;3.30;99.90;;;;;;5094896;28;20210;-46
2021/01/10 07:34:09;;;;;;;21.30;10.20;;;3.70;99.90;;;;;;5094779;28;20213;-46
2021/01/10 07:37:02;;;;;;;13.32;9.93;;;3.70;99.90;;;;;;5094633;28;20191;-46
2021/01/10 07:39:30;;;;;;;16.20;11.23;;;3.80;99.90;;;;;;5075492;28;20210;-46
2021/01/10 07:42:15;;;;;;;14.48;10.23;;;3.70;99.90;;;;;;5094381;28;20187;-46
2021/01/10 07:44:45;;;;;;;15.68;12.10;;;3.60;99.90;;;;;;5094432;28;20626;-46
2021/01/10 07:47:12;;;;;;;18.00;10.93;;;3.20;99.90;;;;;;5093270;28;20670;-46
2021/01/10 07:49:52;;;;;;;14.35;10.40;;;3.60;99.90;;;;;;5094601;28;20217;-47
2021/01/10 07:52:53;;;;;;;16.55;10.45;;;3.60;99.90;;;;;;5094141;28;20224;-46
2021/01/10 07:55:25;;;;;;;14.02;9.77;;;3.50;99.90;;;;;;5094003;28;20240;-46
2021/01/10 07:57:53;;;;;;;14.95;10.77;;;3.60;99.90;;;;;;5094282;28;20206;-46
2021/01/10 08:00:22;;;;;;;14.30;11.35;;;3.70;99.90;;;;;;5094369;28;20277;-46
2021/01/10 08:03:00;;;;;;;17.85;12.02;;;3.60;99.90;;;;;;5094203;28;20218;-46
2021/01/10 08:05:30;;;;;;;17.17;12.00;;;3.80;99.90;;;;;;5094428;28;20186;-46
2021/01/10 08:08:03;;;;;;;17.95;11.23;;;3.80;99.90;;;;;;5094208;28;20213;-46
2021/01/10 08:10:46;;;;;;;15.27;10.88;;;3.80;99.90;;;;;;5094304;28;20187;-46
2021/01/10 08:13:29;;;;;;;12.85;10.00;;;3.60;99.90;;;;;;5093917;28;20698;-46
2021/01/10 08:15:57;;;;;;;13.55;9.18;;;3.70;99.90;;;;;;5094069;28;20256;-46
2021/01/10 08:18:27;;;;;;;14.77;11.38;;;3.70;99.90;;;;;;5093405;28;20290;-46
2021/01/10 08:20:54;;;;;;;14.63;10.90;;;4.00;99.90;;;;;;5093892;28;20273;-46
2021/01/10 08:23:23;;;;;;;19.70;11.88;;;3.80;99.90;;;;;;5093948;28;20207;-46
2021/01/10 08:25:51;;;;;;;20.15;13.73;;;4.00;99.90;;;;;;5094138;28;20191;-45
2021/01/10 08:28:19;;;;;;;17.08;11.95;;;4.00;99.90;;;;;;5093819;28;20199;-46
2021/01/10 08:30:47;;;;;;;16.67;11.90;;;4.00;99.90;;;;;;5092228;28;20206;-46
2021/01/10 08:33:20;;;;;;;21.50;13.20;;;4.00;99.90;;;;;;5091925;28;20211;-45
2021/01/10 08:35:47;;;;;;;20.67;12.98;;;4.10;99.90;;;;;;5093726;28;20221;-45
2021/01/10 08:38:13;;;;;;;20.13;12.55;;;4.10;99.90;;;;;;5093351;28;20190;-45
2021/01/10 08:40:41;;;;;;;16.73;11.77;;;4.00;99.90;;;;;;5093466;28;20190;-45
2021/01/10 08:43:08;;;;;;;16.17;10.13;;;4.20;99.90;;;;;;5093138;28;20218;-46
2021/01/10 08:45:35;;;;;;;20.73;13.02;;;4.00;99.90;;;;;;5093278;28;20663;-46
2021/01/10 08:48:02;;;;;;;16.15;11.90;;;3.90;99.90;;;;;;5093203;28;20191;-45
2021/01/10 08:50:39;;;;;;;22.92;11.77;;;3.40;99.90;;;;;;5093353;28;20576;-45
2021/01/10 08:53:05;;;;;;;14.35;10.98;;;4.20;99.90;;;;;;5092835;28;20206;-46
2021/01/10 08:55:37;;;;;;;15.02;10.27;;;4.40;99.90;;;;;;5093210;28;20229;-46
2021/01/10 08:58:07;;;;;;;15.65;11.30;;;4.40;99.90;;;;;;5093123;28;20690;-46
2021/01/10 09:00:34;;;;;;;13.63;11.18;;;4.20;99.90;;;;;;5093276;28;20202;-45
2021/01/10 09:03:17;;;;;;;18.60;11.85;;;4.10;99.90;;;;;;5092668;28;20222;-45
2021/01/10 09:05:45;;;;;;;15.82;10.43;;;4.40;99.90;;;;;;5091988;28;20195;-45
2021/01/10 09:08:18;;;;;;;16.25;11.65;;;4.40;99.90;;;;;;5092642;28;20659;-47
2021/01/10 09:10:55;;;;;;;13.02;10.20;;;4.40;99.90;;;;;;5092614;28;20195;-45
2021/01/10 09:13:26;;;;;;;15.73;11.00;;;4.40;99.90;;;;;;5092397;28;20325;-47
2021/01/10 09:15:55;;;;;;;15.63;10.80;;;4.20;99.90;;;;;;5093100;28;20580;-46
2021/01/10 09:18:23;;;;;;;13.07;9.55;;;4.40;99.90;;;;;;5093714;28;20195;-47
2021/01/10 09:20:54;;;;;;;15.00;10.00;;;4.40;99.90;;;;;;5093319;28;20198;-46
2021/01/10 09:23:22;;;;;;;13.05;9.02;;;4.70;99.90;;;;;;5092975;28;20549;-46
2021/01/10 09:25:48;;;;;;;12.13;9.63;;;4.40;99.90;;;;;;5092635;28;20694;-46
2021/01/10 09:28:16;;;;;;;10.88;8.30;;;4.40;99.90;;;;;;5093946;28;20244;-46
2021/01/10 09:30:45;;;;;;;12.85;9.80;;;4.40;99.90;;;;;;5093510;28;20579;-46
2021/01/10 09:33:13;;;;;;;11.45;8.88;;;4.20;99.90;;;;;;5093513;28;20214;-46
2021/01/10 09:35:45;;;;;;;12.50;8.80;;;4.60;99.90;;;;;;5092767;28;20230;-46
2021/01/10 09:38:13;;;;;;;11.98;9.57;;;4.30;99.90;;;;;;5093474;28;20197;-46
2021/01/10 09:40:59;;;;;;;18.33;10.95;;;4.60;99.90;;;;;;5091873;28;20577;-46
2021/01/10 09:43:39;;;;;;;12.55;9.70;;;4.40;99.90;;;;;;5092817;28;20215;-46
2021/01/10 09:46:25;;;;;;;12.60;9.93;;;4.40;99.90;;;;;;5092739;28;20667;-45
2021/01/10 09:48:53;;;;;;;15.55;11.55;;;4.60;99.90;;;;;;5091795;28;20218;-45
2021/01/10 09:51:21;;;;;;;15.27;10.90;;;4.60;99.90;;;;;;5092220;28;20675;-46
2021/01/10 09:53:48;;;;;;;13.25;10.23;;;4.00;99.90;;;;;;5092211;28;20675;-45
2021/01/10 09:56:16;;;;;;;12.50;9.77;;;4.60;99.90;;;;;;5090853;28;20203;-45
2021/01/10 09:58:42;;;;;;;13.48;9.60;;;4.70;99.90;;;;;;5091991;28;20225;-46
2021/01/10 10:01:09;;;;;;;15.23;10.98;;;4.70;99.90;;;;;;5092310;28;20651;-46
2021/01/10 10:03:37;;;;;;;14.70;10.23;;;4.40;99.90;;;;;;5093150;28;20271;-46
2021/01/10 10:06:04;;;;;;;14.68;10.80;;;4.40;99.90;;;;;;5092666;28;20186;-46
2021/01/10 10:08:30;;;;;;;14.13;11.15;;;4.60;99.90;;;;;;5092813;28;20198;-46
2021/01/10 10:10:58;;;;;;;13.95;9.57;;;4.40;99.90;;;;;;5093143;28;20217;-46
2021/01/10 10:13:27;;;;;;;17.10;11.77;;;4.60;99.90;;;;;;5092376;28;20215;-46
2021/01/10 10:15:54;;;;;;;14.65;10.13;;;4.50;99.90;;;;;;5092584;28;20188;-45
2021/01/10 10:18:23;;;;;;;15.95;11.80;;;4.40;99.90;;;;;;5092274;28;20593;-46
2021/01/10 10:20:51;;;;;;;14.45;10.95;;;4.60;99.90;;;;;;5093120;28;20206;-45
2021/01/10 10:23:18;;;;;;;15.25;10.68;;;4.60;99.90;;;;;;5092066;28;20217;-46
2021/01/10 10:25:47;;;;;;;14.63;12.02;;;4.60;99.90;;;;;;5092147;28;20193;-46
2021/01/10 10:28:14;;;;;;;15.68;10.93;;;4.50;99.90;;;;;;5091176;28;20198;-46
2021/01/10 10:30:42;;;;;;;16.90;11.95;;;4.40;99.90;;;;;;5092020;28;20195;-46
2021/01/10 10:33:09;;;;;;;14.88;11.35;;;4.10;99.90;;;;;;5092014;28;20536;-46
2021/01/10 10:35:36;;;;;;;19.63;12.23;;;4.60;99.90;;;;;;5091974;28;20282;-46
2021/01/10 10:38:04;;;;;;;13.55;10.98;;;4.20;99.90;;;;;;5091985;28;20256;-46
2021/01/10 10:40:31;;;;;;;14.85;11.55;;;4.30;99.90;;;;;;5092083;28;20222;-46
2021/01/10 10:42:58;;;;;;;14.02;11.13;;;4.20;99.90;;;;;;5095065;28;20210;-45
2021/01/10 10:45:25;;;;;;;17.25;11.93;;;4.30;99.90;;;;;;5095763;28;20186;-45
2021/01/10 10:47:52;;;;;;;18.85;13.70;;;4.40;99.90;;;;;;5095871;28;20202;-45
2021/01/10 10:50:19;;;;;;;16.33;11.88;;;4.60;99.90;;;;;;5096007;28;20194;-45
2021/01/10 10:52:45;;;;;;;14.68;10.85;;;4.60;99.90;;;;;;5095750;28;20231;-46
2021/01/10 10:55:13;;;;;;;15.63;11.35;;;4.40;99.90;;;;;;5096312;28;20202;-45
2021/01/10 10:57:41;;;;;;;14.30;10.77;;;4.60;99.90;;;;;;5095908;28;20195;-47
2021/01/10 11:00:09;;;;;;;18.17;11.70;;;4.40;99.90;;;;;;5095825;28;20190;-46
2021/01/10 11:02:35;;;;;;;14.95;9.85;;;4.60;99.90;;;;;;5095432;28;20218;-48
2021/01/10 11:05:03;;;;;;;12.45;9.95;;;4.60;99.90;;;;;;5095703;28;20217;-46
2021/01/10 11:07:31;;;;;;;13.65;10.50;;;4.70;99.90;;;;;;5096152;28;20219;-47
2021/01/10 11:09:57;;;;;;;16.83;10.30;;;4.60;99.90;;;;;;5094445;28;20249;-45
2021/01/10 11:12:25;;;;;;;14.43;10.90;;;4.50;99.90;;;;;;5095614;28;20225;-46
2021/01/10 11:14:51;;;;;;;17.33;10.23;;;4.50;99.90;;;;;;5095462;28;20191;-46
2021/01/10 11:17:18;;;;;;;13.00;8.80;;;4.60;99.90;;;;;;5095819;28;20202;-45
2021/01/10 11:19:44;;;;;;;14.32;9.70;;;4.40;99.90;;;;;;5095394;28;20202;-46
2021/01/10 11:22:11;;;;;;;11.15;9.35;;;4.40;99.90;;;;;;5095277;28;20210;-46
2021/01/10 11:24:37;;;;;;;17.55;10.43;;;4.30;99.90;;;;;;5095277;28;20603;-45
2021/01/10 11:27:04;;;;;;;13.60;10.50;;;4.30;99.90;;;;;;5095244;28;20276;-47
2021/01/10 11:29:32;;;;;;;17.05;10.15;;;3.90;99.90;;;;;;5095337;28;20686;-45
2021/01/10 11:31:58;;;;;;;12.48;8.90;;;4.00;99.90;;;;;;5095125;28;20222;-46
2021/01/10 11:34:25;;;;;;;14.30;9.80;;;4.10;99.90;;;;;;5095306;28;20244;-46
2021/01/10 11:36:53;;;;;;;17.83;10.13;;;4.20;99.90;;;;;;5095134;28;20191;-46
2021/01/10 11:39:21;;;;;;;16.98;11.73;;;4.30;99.90;;;;;;5094827;28;20191;-47
2021/01/10 11:41:49;;;;;;;16.70;11.60;;;4.20;99.90;;;;;;5094630;28;20552;-46
2021/01/10 11:44:17;;;;;;;13.45;10.05;;;4.40;99.90;;;;;;5093519;28;20294;-47
2021/01/10 11:46:47;;;;;;;14.88;10.32;;;4.20;99.90;;;;;;5094473;28;20220;-45
2021/01/10 11:49:15;;;;;;;13.77;10.07;;;4.20;99.90;;;;;;5094498;28;20202;-46
2021/01/10 11:51:41;;;;;;;12.13;9.40;;;4.20;99.90;;;;;;5094624;28;20568;-46
2021/01/10 11:54:12;;;;;;;16.10;11.27;;;4.60;99.90;;;;;;5093753;28;20190;-47
2021/01/10 11:56:39;;;;;;;14.30;9.70;;;4.40;99.90;;;;;;5094604;28;20191;-47
2021/01/10 11:59:05;;;;;;;14.15;9.65;;;4.60;99.90;;;;;;5094481;28;20193;-46
2021/01/10 12:01:32;;;;;;;15.05;10.07;;;4.60;99.90;;;;;;5094527;28;20231;-44
2021/01/10 12:04:00;;;;;;;14.25;9.80;;;4.40;99.90;;;;;;5094497;28;20222;-45
2021/01/10 12:06:26;;;;;;;11.77;8.90;;;4.70;99.90;;;;;;5093347;28;20227;-46
2021/01/10 12:08:53;;;;;;;14.80;10.52;;;4.70;99.90;;;;;;5094359;28;20206;-46
2021/01/10 12:11:20;;;;;;;17.60;11.93;;;4.50;99.90;;;;;;5094157;28;20252;-46
2021/01/10 12:13:47;;;;;;;13.48;11.45;;;4.70;99.90;;;;;;5094151;28;20682;-45
2021/01/10 12:16:14;;;;;;;14.73;10.70;;;4.70;99.90;;;;;;5094598;28;20222;-45
2021/01/10 12:18:41;;;;;;;16.52;10.45;;;4.60;99.90;;;;;;5094245;28;20195;-45
2021/01/10 12:21:09;;;;;;;11.98;9.05;;;4.40;99.90;;;;;;5094009;28;20222;-45
2021/01/10 12:23:36;;;;;;;15.48;9.32;;;4.40;99.90;;;;;;5094310;28;20214;-45
2021/01/10 12:26:06;;;;;;;15.85;11.30;;;4.30;99.90;;;;;;5094255;28;20606;-45
2021/01/10 12:28:33;;;;;;;15.73;10.75;;;4.20;99.90;;;;;;5095164;28;20666;-46
2021/01/10 12:30:59;;;;;;;12.65;9.32;;;4.40;99.90;;;;;;5093411;28;20204;-46
2021/01/10 12:33:26;;;;;;;13.25;9.57;;;4.40;99.90;;;;;;5094786;28;20218;-45
2021/01/10 12:35:52;;;;;;;14.55;9.35;;;4.60;99.90;;;;;;5096514;28;20210;-45
2021/01/10 12:38:20;;;;;;;15.75;11.40;;;4.60;99.90;;;;;;5095786;28;20331;-46
2021/01/10 12:40:46;;;;;;;13.85;9.70;;;4.60;99.90;;;;;;5095385;28;20190;-46
2021/01/10 12:43:13;;;;;;;13.95;9.65;;;4.80;99.90;;;;;;5094484;28;20214;-45
2021/01/10 12:45:40;;;;;;;13.90;9.23;;;4.80;99.90;;;;;;5093713;28;20321;-45
2021/01/10 12:48:07;;;;;;;11.80;9.32;;;4.60;99.90;;;;;;5093423;28;20198;-46